sensor_id;sensor_type;location;lat;lon;timestamp;temperature;humidity
41924;DHT22;27613;48.116;11.656;2023-01-06T00:00:37;7.70;99.90
41924;DHT22;27613;48.116;11.656;2023-01-06T00:03:03;7.70;99.90
41924;DHT22;27613;48.116;11.656;2023-01-06T00:05:28;7.80;99.90
41924;DHT22;27613;48.116;11.656;2023-01-06T00:07:54;7.70;99.90
41924;DHT22;27613;48.116;11.656;2023-01-06T00:10:20;7.80;99.90
41924;DHT22;27613;48.116;11.656;2023-01-06T00:12:47;7.80;99.90
41924;DHT22;27613;48.116;11.656;2023-01-06T00:15:13;7.70;99.90
41924;DHT22;27613;48.116;11.656;2023-01-06T00:17:39;7.80;99.90
41924;DHT22;27613;48.116;11.656;2023-01-06T00:20:05;7.80;99.90
41924;DHT22;27613;48.116;11.656;2023-01-06T00:22:31;7.80;99.90
41924;DHT22;27613;48.116;11.656;2023-01-06T00:24:57;7.80;99.90
41924;DHT22;27613;48.116;11.656;2023-01-06T00:27:22;7.80;99.90
41924;DHT22;27613;48.116;11.656;2023-01-06T00:29:48;7.80;99.90
41924;DHT22;27613;48.116;11.656;2023-01-06T00:32:16;7.80;99.90
41924;DHT22;27613;48.116;11.656;2023-01-06T00:34:41;7.80;99.90
41924;DHT22;27613;48.116;11.656;2023-01-06T00:37:07;7.80;99.90
41924;DHT22;27613;48.116;11.656;2023-01-06T00:39:32;7.80;99.90
41924;DHT22;27613;48.116;11.656;2023-01-06T00:41:58;7.90;99.90
41924;DHT22;27613;48.116;11.656;2023-01-06T00:44:32;7.90;99.90
41924;DHT22;27613;48.116;11.656;2023-01-06T00:46:58;7.90;99.90
41924;DHT22;27613;48.116;11.656;2023-01-06T00:49:24;7.90;99.90
41924;DHT22;27613;48.116;11.656;2023-01-06T00:51:50;7.90;99.90
41924;DHT22;27613;48.116;11.656;2023-01-06T00:54:16;7.90;99.90
41924;DHT22;27613;48.116;11.656;2023-01-06T00:56:44;7.90;99.90
41924;DHT22;27613;48.116;11.656;2023-01-06T00:59:12;7.90;99.90
41924;DHT22;27613;48.116;11.656;2023-01-06T01:01:38;8.00;99.90
41924;DHT22;27613;48.116;11.656;2023-01-06T01:04:05;8.00;99.90
41924;DHT22;27613;48.116;11.656;2023-01-06T01:06:30;8.00;99.90
41924;DHT22;27613;48.116;11.656;2023-01-06T01:08:57;8.00;99.90
41924;DHT22;27613;48.116;11.656;2023-01-06T01:11:24;8.00;99.90
41924;DHT22;27613;48.116;11.656;2023-01-06T01:14:09;8.00;99.90
41924;DHT22;27613;48.116;11.656;2023-01-06T01:16:35;7.90;99.90
41924;DHT22;27613;48.116;11.656;2023-01-06T01:19:00;7.90;99.90
41924;DHT22;27613;48.116;11.656;2023-01-06T01:21:26;7.90;99.90
41924;DHT22;27613;48.116;11.656;2023-01-06T01:23:51;7.80;99.90
41924;DHT22;27613;48.116;11.656;2023-01-06T01:26:17;7.70;99.90
41924;DHT22;27613;48.116;11.656;2023-01-06T01:28:43;7.70;99.90
41924;DHT22;27613;48.116;11.656;2023-01-06T01:31:09;7.70;99.90
41924;DHT22;27613;48.116;11.656;2023-01-06T01:33:34;7.60;99.90
41924;DHT22;27613;48.116;11.656;2023-01-06T01:36:08;7.50;99.90
41924;DHT22;27613;48.116;11.656;2023-01-06T01:38:34;7.50;99.90
41924;DHT22;27613;48.116;11.656;2023-01-06T01:41:00;7.50;99.90
41924;DHT22;27613;48.116;11.656;2023-01-06T01:43:47;7.40;99.90
41924;DHT22;27613;48.116;11.656;2023-01-06T01:46:36;7.40;99.90
41924;DHT22;27613;48.116;11.656;2023-01-06T01:49:22;7.40;99.90
41924;DHT22;27613;48.116;11.656;2023-01-06T01:51:50;7.30;99.90
41924;DHT22;27613;48.116;11.656;2023-01-06T01:54:22;7.20;99.90
41924;DHT22;27613;48.116;11.656;2023-01-06T01:56:54;7.20;99.90
41924;DHT22;27613;48.116;11.656;2023-01-06T01:59:27;7.10;99.90
41924;DHT22;27613;48.116;11.656;2023-01-06T02:01:53;7.10;99.90
41924;DHT22;27613;48.116;11.656;2023-01-06T02:04:20;7.10;99.90
41924;DHT22;27613;48.116;11.656;2023-01-06T02:06:47;7.10;99.90
41924;DHT22;27613;48.116;11.656;2023-01-06T02:09:30;7.00;99.90
41924;DHT22;27613;48.116;11.656;2023-01-06T02:11:57;6.90;99.90
41924;DHT22;27613;48.116;11.656;2023-01-06T02:14:25;6.80;99.90
41924;DHT22;27613;48.116;11.656;2023-01-06T02:20:14;6.50;99.90
41924;DHT22;27613;48.116;11.656;2023-01-06T02:33:57;6.20;99.90
41924;DHT22;27613;48.116;11.656;2023-01-06T02:39:26;6.20;99.90
41924;DHT22;27613;48.116;11.656;2023-01-06T02:42:07;6.20;99.90
41924;DHT22;27613;48.116;11.656;2023-01-06T02:45:02;6.20;99.90
41924;DHT22;27613;48.116;11.656;2023-01-06T02:56:03;5.70;99.90
41924;DHT22;27613;48.116;11.656;2023-01-06T02:58:48;5.60;99.90
41924;DHT22;27613;48.116;11.656;2023-01-06T03:01:16;5.50;99.90
41924;DHT22;27613;48.116;11.656;2023-01-06T03:03:45;5.40;99.90
41924;DHT22;27613;48.116;11.656;2023-01-06T03:06:14;5.30;99.90
41924;DHT22;27613;48.116;11.656;2023-01-06T03:08:43;5.30;99.90
41924;DHT22;27613;48.116;11.656;2023-01-06T03:11:09;5.30;99.90
41924;DHT22;27613;48.116;11.656;2023-01-06T03:16:12;5.20;99.90
41924;DHT22;27613;48.116;11.656;2023-01-06T03:18:39;5.20;99.90
41924;DHT22;27613;48.116;11.656;2023-01-06T03:21:10;5.10;99.90
41924;DHT22;27613;48.116;11.656;2023-01-06T03:23:39;5.00;99.90
41924;DHT22;27613;48.116;11.656;2023-01-06T03:26:05;5.00;99.90
41924;DHT22;27613;48.116;11.656;2023-01-06T03:28:31;5.00;99.90
41924;DHT22;27613;48.116;11.656;2023-01-06T03:39:31;4.90;99.90
41924;DHT22;27613;48.116;11.656;2023-01-06T03:42:20;4.90;99.90
41924;DHT22;27613;48.116;11.656;2023-01-06T03:48:30;4.80;99.90
41924;DHT22;27613;48.116;11.656;2023-01-06T03:56:38;4.70;99.90
41924;DHT22;27613;48.116;11.656;2023-01-06T03:59:10;4.60;99.90
41924;DHT22;27613;48.116;11.656;2023-01-06T04:01:37;4.60;99.90
41924;DHT22;27613;48.116;11.656;2023-01-06T04:04:03;4.50;99.90
41924;DHT22;27613;48.116;11.656;2023-01-06T04:06:29;4.50;99.90
41924;DHT22;27613;48.116;11.656;2023-01-06T04:08:54;4.50;99.90
41924;DHT22;27613;48.116;11.656;2023-01-06T04:11:20;4.50;99.90
41924;DHT22;27613;48.116;11.656;2023-01-06T04:14:04;4.40;99.90
41924;DHT22;27613;48.116;11.656;2023-01-06T04:16:30;4.40;99.90
41924;DHT22;27613;48.116;11.656;2023-01-06T04:18:55;4.40;99.90
41924;DHT22;27613;48.116;11.656;2023-01-06T04:21:21;4.30;99.90
41924;DHT22;27613;48.116;11.656;2023-01-06T04:23:46;4.30;99.90
41924;DHT22;27613;48.116;11.656;2023-01-06T04:26:12;4.30;99.90
41924;DHT22;27613;48.116;11.656;2023-01-06T04:28:38;4.30;99.90
41924;DHT22;27613;48.116;11.656;2023-01-06T04:31:04;4.30;99.90
41924;DHT22;27613;48.116;11.656;2023-01-06T04:33:29;4.20;99.90
41924;DHT22;27613;48.116;11.656;2023-01-06T04:35:55;4.20;99.90
41924;DHT22;27613;48.116;11.656;2023-01-06T04:38:20;4.10;99.90
41924;DHT22;27613;48.116;11.656;2023-01-06T04:40:46;4.10;99.90
41924;DHT22;27613;48.116;11.656;2023-01-06T04:43:11;4.00;99.90
41924;DHT22;27613;48.116;11.656;2023-01-06T04:45:41;4.00;99.90
41924;DHT22;27613;48.116;11.656;2023-01-06T04:48:10;4.00;99.90
41924;DHT22;27613;48.116;11.656;2023-01-06T04:50:36;4.00;99.90
41924;DHT22;27613;48.116;11.656;2023-01-06T04:53:02;3.90;99.90
41924;DHT22;27613;48.116;11.656;2023-01-06T04:55:28;3.90;99.90
41924;DHT22;27613;48.116;11.656;2023-01-06T04:57:54;3.90;99.90
41924;DHT22;27613;48.116;11.656;2023-01-06T05:00:20;3.80;99.90
41924;DHT22;27613;48.116;11.656;2023-01-06T05:02:46;3.80;99.90
41924;DHT22;27613;48.116;11.656;2023-01-06T05:05:12;3.80;99.90
41924;DHT22;27613;48.116;11.656;2023-01-06T05:07:38;3.80;99.90
41924;DHT22;27613;48.116;11.656;2023-01-06T05:10:05;3.70;99.90
41924;DHT22;27613;48.116;11.656;2023-01-06T05:12:32;3.60;99.90
41924;DHT22;27613;48.116;11.656;2023-01-06T05:14:57;3.70;99.90
41924;DHT22;27613;48.116;11.656;2023-01-06T05:17:23;3.60;99.90
41924;DHT22;27613;48.116;11.656;2023-01-06T05:19:49;3.60;99.90
41924;DHT22;27613;48.116;11.656;2023-01-06T05:22:14;3.60;99.90
41924;DHT22;27613;48.116;11.656;2023-01-06T05:24:40;3.50;99.90
41924;DHT22;27613;48.116;11.656;2023-01-06T05:27:06;3.50;99.90
41924;DHT22;27613;48.116;11.656;2023-01-06T05:29:31;3.50;99.90
41924;DHT22;27613;48.116;11.656;2023-01-06T05:31:57;3.40;99.90
41924;DHT22;27613;48.116;11.656;2023-01-06T05:34:23;3.40;99.90
41924;DHT22;27613;48.116;11.656;2023-01-06T05:36:48;3.40;99.90
41924;DHT22;27613;48.116;11.656;2023-01-06T05:39:14;3.40;99.90
41924;DHT22;27613;48.116;11.656;2023-01-06T05:41:40;3.30;99.90
41924;DHT22;27613;48.116;11.656;2023-01-06T05:44:05;3.40;99.90
41924;DHT22;27613;48.116;11.656;2023-01-06T05:46:31;3.20;99.90
41924;DHT22;27613;48.116;11.656;2023-01-06T05:48:58;3.20;99.90
41924;DHT22;27613;48.116;11.656;2023-01-06T05:51:24;3.20;99.90
41924;DHT22;27613;48.116;11.656;2023-01-06T05:53:50;3.20;99.90
41924;DHT22;27613;48.116;11.656;2023-01-06T05:56:17;3.20;99.90
41924;DHT22;27613;48.116;11.656;2023-01-06T05:58:46;3.10;99.90
41924;DHT22;27613;48.116;11.656;2023-01-06T06:01:20;3.10;99.90
41924;DHT22;27613;48.116;11.656;2023-01-06T06:03:46;3.20;99.90
41924;DHT22;27613;48.116;11.656;2023-01-06T06:06:13;3.10;99.90
41924;DHT22;27613;48.116;11.656;2023-01-06T06:08:38;3.10;99.90
41924;DHT22;27613;48.116;11.656;2023-01-06T06:11:06;3.00;99.90
41924;DHT22;27613;48.116;11.656;2023-01-06T06:13:32;3.10;99.90
41924;DHT22;27613;48.116;11.656;2023-01-06T06:16:09;3.00;99.90
41924;DHT22;27613;48.116;11.656;2023-01-06T06:18:36;3.00;99.90
41924;DHT22;27613;48.116;11.656;2023-01-06T06:21:13;3.00;99.90
41924;DHT22;27613;48.116;11.656;2023-01-06T06:23:39;2.90;99.90
41924;DHT22;27613;48.116;11.656;2023-01-06T06:26:06;2.90;99.90
41924;DHT22;27613;48.116;11.656;2023-01-06T06:28:33;2.90;99.90
41924;DHT22;27613;48.116;11.656;2023-01-06T06:31:16;2.90;99.90
41924;DHT22;27613;48.116;11.656;2023-01-06T06:33:42;3.00;99.90
41924;DHT22;27613;48.116;11.656;2023-01-06T06:36:09;2.90;99.90
41924;DHT22;27613;48.116;11.656;2023-01-06T06:38:37;2.80;99.90
41924;DHT22;27613;48.116;11.656;2023-01-06T06:41:03;2.80;99.90
41924;DHT22;27613;48.116;11.656;2023-01-06T06:43:29;2.80;99.90
41924;DHT22;27613;48.116;11.656;2023-01-06T06:45:54;2.80;99.90
41924;DHT22;27613;48.116;11.656;2023-01-06T06:48:20;2.80;99.90
41924;DHT22;27613;48.116;11.656;2023-01-06T06:50:45;2.80;99.90
41924;DHT22;27613;48.116;11.656;2023-01-06T06:53:11;2.70;99.90
41924;DHT22;27613;48.116;11.656;2023-01-06T06:55:36;3.00;99.90
41924;DHT22;27613;48.116;11.656;2023-01-06T06:58:02;2.90;99.90
41924;DHT22;27613;48.116;11.656;2023-01-06T07:00:28;2.80;99.90
41924;DHT22;27613;48.116;11.656;2023-01-06T07:02:53;2.90;99.90
41924;DHT22;27613;48.116;11.656;2023-01-06T07:05:19;3.00;99.90
41924;DHT22;27613;48.116;11.656;2023-01-06T07:07:44;3.20;99.90
41924;DHT22;27613;48.116;11.656;2023-01-06T07:10:14;3.30;99.90
41924;DHT22;27613;48.116;11.656;2023-01-06T07:12:40;3.40;99.90
41924;DHT22;27613;48.116;11.656;2023-01-06T07:15:07;3.70;99.90
41924;DHT22;27613;48.116;11.656;2023-01-06T07:17:33;3.80;99.90
41924;DHT22;27613;48.116;11.656;2023-01-06T07:19:58;3.80;99.90
41924;DHT22;27613;48.116;11.656;2023-01-06T07:22:24;3.80;99.90
41924;DHT22;27613;48.116;11.656;2023-01-06T07:24:50;4.00;99.90
41924;DHT22;27613;48.116;11.656;2023-01-06T07:27:15;4.10;99.90
41924;DHT22;27613;48.116;11.656;2023-01-06T07:29:41;4.10;99.90
41924;DHT22;27613;48.116;11.656;2023-01-06T07:32:07;4.10;99.90
41924;DHT22;27613;48.116;11.656;2023-01-06T07:34:32;4.20;99.90
41924;DHT22;27613;48.116;11.656;2023-01-06T07:36:58;4.20;99.90
41924;DHT22;27613;48.116;11.656;2023-01-06T07:39:23;4.30;99.90
41924;DHT22;27613;48.116;11.656;2023-01-06T07:41:49;4.30;99.90
41924;DHT22;27613;48.116;11.656;2023-01-06T07:44:15;4.30;99.90
41924;DHT22;27613;48.116;11.656;2023-01-06T07:46:40;4.30;99.90
41924;DHT22;27613;48.116;11.656;2023-01-06T07:49:06;4.40;99.90
41924;DHT22;27613;48.116;11.656;2023-01-06T07:51:31;4.50;99.90
41924;DHT22;27613;48.116;11.656;2023-01-06T07:53:57;4.60;99.90
41924;DHT22;27613;48.116;11.656;2023-01-06T07:56:22;4.80;99.90
41924;DHT22;27613;48.116;11.656;2023-01-06T07:58:49;5.10;99.90
41924;DHT22;27613;48.116;11.656;2023-01-06T08:01:15;6.20;99.90
41924;DHT22;27613;48.116;11.656;2023-01-06T08:03:40;7.60;99.90
41924;DHT22;27613;48.116;11.656;2023-01-06T08:06:08;8.90;99.90
41924;DHT22;27613;48.116;11.656;2023-01-06T08:08:38;9.80;99.90
41924;DHT22;27613;48.116;11.656;2023-01-06T08:11:05;10.40;97.30
41924;DHT22;27613;48.116;11.656;2023-01-06T08:13:31;10.90;93.00
41924;DHT22;27613;48.116;11.656;2023-01-06T08:15:56;9.90;93.20
41924;DHT22;27613;48.116;11.656;2023-01-06T08:18:22;10.10;92.70
41924;DHT22;27613;48.116;11.656;2023-01-06T08:20:47;10.10;92.90
41924;DHT22;27613;48.116;11.656;2023-01-06T08:23:13;10.50;92.80
41924;DHT22;27613;48.116;11.656;2023-01-06T08:25:39;9.90;92.10
41924;DHT22;27613;48.116;11.656;2023-01-06T08:28:04;9.10;94.00
41924;DHT22;27613;48.116;11.656;2023-01-06T08:30:30;9.10;94.90
41924;DHT22;27613;48.116;11.656;2023-01-06T08:32:57;9.50;94.80
41924;DHT22;27613;48.116;11.656;2023-01-06T08:35:22;10.70;92.50
41924;DHT22;27613;48.116;11.656;2023-01-06T08:37:48;10.80;91.20
41924;DHT22;27613;48.116;11.656;2023-01-06T08:40:14;11.10;90.20
41924;DHT22;27613;48.116;11.656;2023-01-06T08:42:39;11.20;89.50
41924;DHT22;27613;48.116;11.656;2023-01-06T08:45:05;11.30;88.20
41924;DHT22;27613;48.116;11.656;2023-01-06T08:47:32;11.10;89.70
41924;DHT22;27613;48.116;11.656;2023-01-06T08:49:58;11.70;87.50
41924;DHT22;27613;48.116;11.656;2023-01-06T08:52:23;11.60;86.70
41924;DHT22;27613;48.116;11.656;2023-01-06T08:54:49;12.90;85.30
41924;DHT22;27613;48.116;11.656;2023-01-06T08:57:14;14.60;76.20
41924;DHT22;27613;48.116;11.656;2023-01-06T08:59:40;15.10;74.60
41924;DHT22;27613;48.116;11.656;2023-01-06T09:02:08;15.30;72.30
41924;DHT22;27613;48.116;11.656;2023-01-06T09:04:34;13.40;76.50
41924;DHT22;27613;48.116;11.656;2023-01-06T09:06:59;14.80;75.80
41924;DHT22;27613;48.116;11.656;2023-01-06T09:09:25;15.50;71.80
41924;DHT22;27613;48.116;11.656;2023-01-06T09:11:51;16.60;67.90
41924;DHT22;27613;48.116;11.656;2023-01-06T09:14:16;17.50;65.10
41924;DHT22;27613;48.116;11.656;2023-01-06T09:16:42;16.50;65.40
41924;DHT22;27613;48.116;11.656;2023-01-06T09:19:07;16.00;66.60
41924;DHT22;27613;48.116;11.656;2023-01-06T09:21:35;15.70;68.10
41924;DHT22;27613;48.116;11.656;2023-01-06T09:24:00;14.10;72.20
41924;DHT22;27613;48.116;11.656;2023-01-06T09:26:26;15.50;69.80
41924;DHT22;27613;48.116;11.656;2023-01-06T09:28:51;14.90;70.80
41924;DHT22;27613;48.116;11.656;2023-01-06T09:31:17;15.60;70.10
41924;DHT22;27613;48.116;11.656;2023-01-06T09:33:43;15.70;69.50
41924;DHT22;27613;48.116;11.656;2023-01-06T09:36:08;16.00;67.10
41924;DHT22;27613;48.116;11.656;2023-01-06T09:38:34;16.70;65.90
41924;DHT22;27613;48.116;11.656;2023-01-06T09:46:34;18.10;63.10
41924;DHT22;27613;48.116;11.656;2023-01-06T09:49:06;19.60;60.40
41924;DHT22;27613;48.116;11.656;2023-01-06T09:51:34;20.20;58.50
41924;DHT22;27613;48.116;11.656;2023-01-06T09:56:35;19.10;60.20
41924;DHT22;27613;48.116;11.656;2023-01-06T09:59:19;19.70;58.80
41924;DHT22;27613;48.116;11.656;2023-01-06T10:01:47;20.70;56.90
41924;DHT22;27613;48.116;11.656;2023-01-06T10:04:24;18.60;61.00
41924;DHT22;27613;48.116;11.656;2023-01-06T10:12:47;19.30;57.50
41924;DHT22;27613;48.116;11.656;2023-01-06T10:15:23;18.50;60.60
41924;DHT22;27613;48.116;11.656;2023-01-06T10:17:56;18.30;60.40
41924;DHT22;27613;48.116;11.656;2023-01-06T10:23:38;19.70;59.20
41924;DHT22;27613;48.116;11.656;2023-01-06T10:27:01;21.10;55.60
41924;DHT22;27613;48.116;11.656;2023-01-06T10:29:03;21.00;55.80
41924;DHT22;27613;48.116;11.656;2023-01-06T10:31:33;22.00;53.80
41924;DHT22;27613;48.116;11.656;2023-01-06T10:34:01;21.30;53.80
41924;DHT22;27613;48.116;11.656;2023-01-06T10:36:35;19.00;59.00
41924;DHT22;27613;48.116;11.656;2023-01-06T10:39:08;20.00;58.50
41924;DHT22;27613;48.116;11.656;2023-01-06T10:44:13;19.20;59.70
41924;DHT22;27613;48.116;11.656;2023-01-06T10:46:40;18.30;63.10
41924;DHT22;27613;48.116;11.656;2023-01-06T10:49:14;18.60;60.90
41924;DHT22;27613;48.116;11.656;2023-01-06T10:51:42;19.00;61.20
41924;DHT22;27613;48.116;11.656;2023-01-06T10:54:13;19.10;60.90
41924;DHT22;27613;48.116;11.656;2023-01-06T10:56:54;20.60;58.70
41924;DHT22;27613;48.116;11.656;2023-01-06T10:59:20;19.10;60.80
41924;DHT22;27613;48.116;11.656;2023-01-06T11:01:54;19.80;60.30
41924;DHT22;27613;48.116;11.656;2023-01-06T11:04:21;19.40;60.90
41924;DHT22;27613;48.116;11.656;2023-01-06T11:07:02;19.60;60.60
41924;DHT22;27613;48.116;11.656;2023-01-06T11:09:29;20.30;59.20
41924;DHT22;27613;48.116;11.656;2023-01-06T11:11:59;21.00;58.10
41924;DHT22;27613;48.116;11.656;2023-01-06T11:14:29;19.90;59.90
41924;DHT22;27613;48.116;11.656;2023-01-06T11:17:00;19.40;61.40
41924;DHT22;27613;48.116;11.656;2023-01-06T11:19:45;19.10;62.60
41924;DHT22;27613;48.116;11.656;2023-01-06T11:24:55;19.60;60.60
41924;DHT22;27613;48.116;11.656;2023-01-06T11:27:21;19.10;62.80
41924;DHT22;27613;48.116;11.656;2023-01-06T11:29:46;19.30;61.80
41924;DHT22;27613;48.116;11.656;2023-01-06T11:35:02;19.90;60.60
41924;DHT22;27613;48.116;11.656;2023-01-06T11:40:00;18.60;63.10
41924;DHT22;27613;48.116;11.656;2023-01-06T11:42:27;18.30;62.90
41924;DHT22;27613;48.116;11.656;2023-01-06T11:44:53;18.40;63.00
41924;DHT22;27613;48.116;11.656;2023-01-06T11:47:21;18.10;63.60
41924;DHT22;27613;48.116;11.656;2023-01-06T11:49:58;16.80;66.90
41924;DHT22;27613;48.116;11.656;2023-01-06T11:52:28;17.00;66.70
41924;DHT22;27613;48.116;11.656;2023-01-06T12:00:50;17.00;66.30
41924;DHT22;27613;48.116;11.656;2023-01-06T12:03:29;15.60;69.40
41924;DHT22;27613;48.116;11.656;2023-01-06T12:11:55;16.90;68.20
41924;DHT22;27613;48.116;11.656;2023-01-06T12:14:34;17.20;67.10
41924;DHT22;27613;48.116;11.656;2023-01-06T12:19:49;19.00;64.00
41924;DHT22;27613;48.116;11.656;2023-01-06T12:25:25;16.90;68.50
41924;DHT22;27613;48.116;11.656;2023-01-06T12:27:55;17.90;67.30
41924;DHT22;27613;48.116;11.656;2023-01-06T12:30:45;18.60;64.50
41924;DHT22;27613;48.116;11.656;2023-01-06T12:36:14;18.60;63.80
41924;DHT22;27613;48.116;11.656;2023-01-06T12:38:54;18.10;65.20
41924;DHT22;27613;48.116;11.656;2023-01-06T12:46:37;17.00;69.30
41924;DHT22;27613;48.116;11.656;2023-01-06T12:51:54;16.90;69.40
41924;DHT22;27613;48.116;11.656;2023-01-06T12:54:27;17.40;68.00
41924;DHT22;27613;48.116;11.656;2023-01-06T12:57:24;17.10;69.20
41924;DHT22;27613;48.116;11.656;2023-01-06T13:09:05;18.20;65.50
41924;DHT22;27613;48.116;11.656;2023-01-06T13:14:28;18.60;65.30
41924;DHT22;27613;48.116;11.656;2023-01-06T13:17:11;18.00;65.40
41924;DHT22;27613;48.116;11.656;2023-01-06T13:19:54;17.10;68.70
41924;DHT22;27613;48.116;11.656;2023-01-06T13:22:33;17.00;69.00
41924;DHT22;27613;48.116;11.656;2023-01-06T13:28:02;17.10;68.90
41924;DHT22;27613;48.116;11.656;2023-01-06T13:30:57;17.10;69.30
41924;DHT22;27613;48.116;11.656;2023-01-06T13:33:46;16.80;71.00
41924;DHT22;27613;48.116;11.656;2023-01-06T13:39:25;16.20;70.00
41924;DHT22;27613;48.116;11.656;2023-01-06T13:41:55;16.00;71.20
41924;DHT22;27613;48.116;11.656;2023-01-06T13:44:24;16.80;70.10
41924;DHT22;27613;48.116;11.656;2023-01-06T13:46:52;17.90;66.20
41924;DHT22;27613;48.116;11.656;2023-01-06T13:49:20;17.40;66.80
41924;DHT22;27613;48.116;11.656;2023-01-06T13:51:46;16.80;69.30
41924;DHT22;27613;48.116;11.656;2023-01-06T13:59:48;14.60;74.80
41924;DHT22;27613;48.116;11.656;2023-01-06T14:07:57;15.60;71.80
41924;DHT22;27613;48.116;11.656;2023-01-06T14:10:37;15.20;72.80
41924;DHT22;27613;48.116;11.656;2023-01-06T14:16:00;14.60;75.90
41924;DHT22;27613;48.116;11.656;2023-01-06T14:18:33;14.50;75.60
41924;DHT22;27613;48.116;11.656;2023-01-06T14:21:16;14.60;75.40
41924;DHT22;27613;48.116;11.656;2023-01-06T14:24:05;14.00;77.10
41924;DHT22;27613;48.116;11.656;2023-01-06T14:26:47;13.00;80.10
41924;DHT22;27613;48.116;11.656;2023-01-06T14:37:12;11.90;84.90
41924;DHT22;27613;48.116;11.656;2023-01-06T14:39:40;11.60;86.20
41924;DHT22;27613;48.116;11.656;2023-01-06T14:42:20;11.50;87.00
41924;DHT22;27613;48.116;11.656;2023-01-06T14:44:48;11.60;87.00
41924;DHT22;27613;48.116;11.656;2023-01-06T14:47:43;11.30;88.10
41924;DHT22;27613;48.116;11.656;2023-01-06T14:50:23;10.80;89.90
41924;DHT22;27613;48.116;11.656;2023-01-06T14:53:01;10.70;90.60
41924;DHT22;27613;48.116;11.656;2023-01-06T14:55:32;10.60;90.90
41924;DHT22;27613;48.116;11.656;2023-01-06T14:57:59;10.10;92.30
41924;DHT22;27613;48.116;11.656;2023-01-06T15:00:27;10.40;91.80
41924;DHT22;27613;48.116;11.656;2023-01-06T15:05:32;10.20;92.60
41924;DHT22;27613;48.116;11.656;2023-01-06T15:08:05;10.40;92.50
41924;DHT22;27613;48.116;11.656;2023-01-06T15:10:33;10.40;92.50
41924;DHT22;27613;48.116;11.656;2023-01-06T15:13:00;10.30;93.00
41924;DHT22;27613;48.116;11.656;2023-01-06T15:15:28;10.30;92.80
41924;DHT22;27613;48.116;11.656;2023-01-06T15:17:55;10.20;93.40
41924;DHT22;27613;48.116;11.656;2023-01-06T15:20:31;10.30;92.90
41924;DHT22;27613;48.116;11.656;2023-01-06T15:22:57;10.10;93.20
41924;DHT22;27613;48.116;11.656;2023-01-06T15:25:25;10.10;93.60
41924;DHT22;27613;48.116;11.656;2023-01-06T15:27:52;10.00;93.90
41924;DHT22;27613;48.116;11.656;2023-01-06T15:30:21;10.00;93.80
41924;DHT22;27613;48.116;11.656;2023-01-06T15:32:49;10.00;94.60
41924;DHT22;27613;48.116;11.656;2023-01-06T15:35:21;10.00;94.50
41924;DHT22;27613;48.116;11.656;2023-01-06T15:37:51;9.80;95.00
41924;DHT22;27613;48.116;11.656;2023-01-06T15:40:21;10.00;94.50
41924;DHT22;27613;48.116;11.656;2023-01-06T15:42:47;9.90;95.00
41924;DHT22;27613;48.116;11.656;2023-01-06T15:45:25;9.70;95.60
41924;DHT22;27613;48.116;11.656;2023-01-06T15:47:52;9.80;95.50
41924;DHT22;27613;48.116;11.656;2023-01-06T15:50:22;9.70;95.50
41924;DHT22;27613;48.116;11.656;2023-01-06T15:52:54;9.70;95.70
41924;DHT22;27613;48.116;11.656;2023-01-06T15:58:22;9.70;96.00
41924;DHT22;27613;48.116;11.656;2023-01-06T16:03:27;9.70;96.10
41924;DHT22;27613;48.116;11.656;2023-01-06T16:06:09;9.70;95.90
41924;DHT22;27613;48.116;11.656;2023-01-06T16:08:36;9.60;96.00
41924;DHT22;27613;48.116;11.656;2023-01-06T16:11:28;9.60;95.80
41924;DHT22;27613;48.116;11.656;2023-01-06T16:14:30;9.60;96.00
41924;DHT22;27613;48.116;11.656;2023-01-06T16:17:05;9.60;96.10
41924;DHT22;27613;48.116;11.656;2023-01-06T16:19:34;9.40;96.60
41924;DHT22;27613;48.116;11.656;2023-01-06T16:22:06;9.50;96.70
41924;DHT22;27613;48.116;11.656;2023-01-06T16:24:32;9.40;96.80
41924;DHT22;27613;48.116;11.656;2023-01-06T16:27:05;9.50;96.80
41924;DHT22;27613;48.116;11.656;2023-01-06T16:29:33;9.40;97.00
41924;DHT22;27613;48.116;11.656;2023-01-06T16:34:51;9.50;96.60
41924;DHT22;27613;48.116;11.656;2023-01-06T16:37:18;9.50;96.50
41924;DHT22;27613;48.116;11.656;2023-01-06T16:39:43;9.50;96.70
41924;DHT22;27613;48.116;11.656;2023-01-06T16:45:00;9.40;97.00
41924;DHT22;27613;48.116;11.656;2023-01-06T16:47:26;9.50;97.10
41924;DHT22;27613;48.116;11.656;2023-01-06T16:49:52;9.50;96.80
41924;DHT22;27613;48.116;11.656;2023-01-06T16:52:17;9.40;97.50
41924;DHT22;27613;48.116;11.656;2023-01-06T16:54:43;9.50;97.40
41924;DHT22;27613;48.116;11.656;2023-01-06T16:57:09;9.40;97.40
41924;DHT22;27613;48.116;11.656;2023-01-06T16:59:35;9.40;97.60
41924;DHT22;27613;48.116;11.656;2023-01-06T17:02:08;9.30;97.50
41924;DHT22;27613;48.116;11.656;2023-01-06T17:04:36;9.40;97.60
41924;DHT22;27613;48.116;11.656;2023-01-06T17:07:02;9.30;98.40
41924;DHT22;27613;48.116;11.656;2023-01-06T17:09:30;9.20;98.30
41924;DHT22;27613;48.116;11.656;2023-01-06T17:11:56;9.20;98.10
41924;DHT22;27613;48.116;11.656;2023-01-06T17:14:22;9.20;98.10
41924;DHT22;27613;48.116;11.656;2023-01-06T17:16:49;9.20;98.40
41924;DHT22;27613;48.116;11.656;2023-01-06T17:19:24;9.20;98.40
41924;DHT22;27613;48.116;11.656;2023-01-06T17:22:27;9.20;98.80
41924;DHT22;27613;48.116;11.656;2023-01-06T17:24:55;9.10;99.10
41924;DHT22;27613;48.116;11.656;2023-01-06T17:27:25;9.10;99.10
41924;DHT22;27613;48.116;11.656;2023-01-06T17:29:52;9.10;99.10
41924;DHT22;27613;48.116;11.656;2023-01-06T17:32:21;9.10;99.20
41924;DHT22;27613;48.116;11.656;2023-01-06T17:34:47;9.00;99.60
41924;DHT22;27613;48.116;11.656;2023-01-06T17:37:24;9.00;99.80
41924;DHT22;27613;48.116;11.656;2023-01-06T17:39:50;9.10;99.90
41924;DHT22;27613;48.116;11.656;2023-01-06T17:44:46;9.00;99.80
41924;DHT22;27613;48.116;11.656;2023-01-06T17:49:57;9.00;99.90
41924;DHT22;27613;48.116;11.656;2023-01-06T17:52:34;8.90;99.90
41924;DHT22;27613;48.116;11.656;2023-01-06T17:57:54;9.00;99.90
41924;DHT22;27613;48.116;11.656;2023-01-06T18:00:32;8.90;99.90
41924;DHT22;27613;48.116;11.656;2023-01-06T18:03:03;9.00;99.90
41924;DHT22;27613;48.116;11.656;2023-01-06T18:10:41;8.80;99.90
41924;DHT22;27613;48.116;11.656;2023-01-06T18:13:33;8.90;99.90
41924;DHT22;27613;48.116;11.656;2023-01-06T18:16:00;8.80;99.90
41924;DHT22;27613;48.116;11.656;2023-01-06T18:18:35;8.90;99.90
41924;DHT22;27613;48.116;11.656;2023-01-06T18:21:13;8.80;99.90
41924;DHT22;27613;48.116;11.656;2023-01-06T18:23:43;8.80;99.90
41924;DHT22;27613;48.116;11.656;2023-01-06T18:26:32;8.70;99.90
41924;DHT22;27613;48.116;11.656;2023-01-06T18:29:12;8.70;99.90